Time;durP1;ratioP1;P1;durP2;ratioP2;P2;SDS_P1;SDS_P2;PMS_P1;PMS_P2;Temp;Humidity;BMP_temperature;BMP_pressure;BME280_temperature;BME280_humidity;BME280_pressure;Samples;Min_cycle;Max_cycle;Signal;HPM_P1;HPM_P2
2021/11/19 00:00:23;;;;;;;0.30;0.20;;;3.50;99.90;;;;;;5039953;28;20530;-86
2021/11/19 00:02:50;;;;;;;0.50;0.50;;;3.50;99.90;;;;;;5039641;28;20934;-86
2021/11/19 00:05:17;;;;;;;0.40;0.40;;;3.40;99.90;;;;;;5039778;28;20470;-85
2021/11/19 00:07:44;;;;;;;0.30;0.30;;;3.40;99.90;;;;;;5039280;28;20960;-85
2021/11/19 00:10:12;;;;;;;0.40;0.40;;;3.40;99.90;;;;;;5039338;28;20938;-85
2021/11/19 00:12:39;;;;;;;0.37;0.33;;;3.30;99.90;;;;;;5039294;28;20973;-85
2021/11/19 00:15:09;;;;;;;0.30;0.30;;;3.30;99.90;;;;;;5039236;28;20958;-85
2021/11/19 00:17:36;;;;;;;0.30;0.30;;;3.30;99.90;;;;;;5039514;28;20434;-85
2021/11/19 00:20:05;;;;;;;0.30;0.30;;;3.40;99.90;;;;;;5039128;28;20474;-84
2021/11/19 00:22:32;;;;;;;0.30;0.30;;;3.40;99.90;;;;;;5039557;28;20457;-85
2021/11/19 00:24:58;;;;;;;0.33;0.33;;;3.40;99.90;;;;;;5039556;28;20833;-86
2021/11/19 00:27:26;;;;;;;0.30;0.20;;;3.40;99.90;;;;;;5039986;28;20459;-89
2021/11/19 00:29:53;;;;;;;0.30;0.30;;;3.40;99.90;;;;;;5039612;28;20525;-85
2021/11/19 00:32:22;;;;;;;0.70;0.67;;;3.40;99.90;;;;;;5039879;28;20453;-89
2021/11/19 00:34:49;;;;;;;0.40;0.40;;;3.30;99.90;;;;;;5039815;28;20458;-89
2021/11/19 00:37:17;;;;;;;0.50;0.50;;;3.30;99.90;;;;;;5049901;28;20426;-87
2021/11/19 00:39:43;;;;;;;0.30;0.30;;;3.30;99.90;;;;;;5039691;28;20850;-89
2021/11/19 00:42:11;;;;;;;0.73;0.30;;;3.30;99.90;;;;;;5039427;28;20443;-89
2021/11/19 00:44:38;;;;;;;0.40;0.40;;;3.30;99.90;;;;;;5036447;28;20477;-89
2021/11/19 00:47:06;;;;;;;0.30;0.30;;;3.30;99.90;;;;;;5036737;28;20447;-88
2021/11/19 00:49:37;;;;;;;0.30;0.30;;;3.30;99.90;;;;;;5036710;28;20792;-88
2021/11/19 00:52:05;;;;;;;0.90;0.50;;;3.30;99.90;;;;;;5037077;28;20434;-89
2021/11/19 00:54:32;;;;;;;0.30;0.30;;;3.30;99.90;;;;;;5036623;28;20474;-88
2021/11/19 00:57:03;;;;;;;0.30;0.30;;;3.30;99.90;;;;;;5036317;28;20949;-87
2021/11/19 00:59:32;;;;;;;0.30;0.30;;;3.30;99.90;;;;;;5035952;28;20581;-89
2021/11/19 01:02:06;;;;;;;0.33;0.33;;;3.30;99.90;;;;;;5036626;28;20453;-85
2021/11/19 01:04:35;;;;;;;0.30;0.30;;;3.30;99.90;;;;;;5035832;28;20446;-84
2021/11/19 01:07:03;;;;;;;0.30;0.30;;;3.30;99.90;;;;;;5035828;28;20439;-84
2021/11/19 01:09:33;;;;;;;0.30;0.30;;;3.30;99.90;;;;;;5035724;28;20454;-84
2021/11/19 01:12:02;;;;;;;0.30;0.30;;;3.30;99.90;;;;;;5035777;28;20431;-84
2021/11/19 01:14:33;;;;;;;0.30;0.20;;;3.30;99.90;;;;;;5035833;28;20843;-87
2021/11/19 01:17:04;;;;;;;0.40;0.30;;;3.30;99.90;;;;;;5036119;28;20435;-88
2021/11/19 01:19:35;;;;;;;0.30;0.30;;;3.30;99.90;;;;;;5036605;28;20467;-89
2021/11/19 01:22:06;;;;;;;1.07;0.60;;;3.30;99.90;;;;;;5035847;28;20427;-86
2021/11/19 01:24:33;;;;;;;0.90;0.47;;;3.30;99.90;;;;;;5035494;28;20633;-86
2021/11/19 01:27:00;;;;;;;0.53;0.53;;;3.30;99.90;;;;;;5035564;28;20458;-84
2021/11/19 01:29:27;;;;;;;0.30;0.20;;;3.20;99.90;;;;;;5035316;28;20450;-84
2021/11/19 01:31:57;;;;;;;0.63;0.50;;;3.10;99.90;;;;;;5035447;28;20451;-88
2021/11/19 01:34:25;;;;;;;0.60;0.47;;;3.10;99.90;;;;;;5036098;28;20502;-89
2021/11/19 01:36:53;;;;;;;0.40;0.40;;;3.10;99.90;;;;;;5035664;28;20942;-88
2021/11/19 01:39:23;;;;;;;0.30;0.30;;;3.10;99.90;;;;;;5035432;28;20486;-84
2021/11/19 01:41:54;;;;;;;0.30;0.27;;;3.20;99.90;;;;;;5035647;28;20443;-88
2021/11/19 01:44:24;;;;;;;0.60;0.60;;;3.10;99.90;;;;;;5035228;28;20457;-84
2021/11/19 01:46:53;;;;;;;0.30;0.30;;;3.00;99.90;;;;;;5035412;28;20455;-84
2021/11/19 01:49:21;;;;;;;0.30;0.20;;;3.00;99.90;;;;;;5034797;28;20454;-84
2021/11/19 01:51:52;;;;;;;0.40;0.40;;;2.90;99.90;;;;;;5034742;28;20454;-84
2021/11/19 01:54:26;;;;;;;0.30;0.30;;;2.90;99.90;;;;;;5033736;28;21013;-84
2021/11/19 01:56:56;;;;;;;2.43;0.50;;;2.90;99.90;;;;;;5035037;28;20466;-87
2021/11/19 01:59:27;;;;;;;0.30;0.30;;;2.90;99.90;;;;;;5034841;28;20497;-87
2021/11/19 02:02:01;;;;;;;0.30;0.30;;;2.90;99.90;;;;;;5036155;28;20463;-88
2021/11/19 02:04:32;;;;;;;0.40;0.30;;;2.90;99.90;;;;;;5035496;28;20557;-88
2021/11/19 02:07:02;;;;;;;0.30;0.20;;;2.90;99.90;;;;;;5035614;28;20522;-89
2021/11/19 02:09:40;;;;;;;0.40;0.40;;;2.90;99.90;;;;;;5036217;28;20911;-88
2021/11/19 02:12:26;;;;;;;0.33;0.33;;;2.90;99.90;;;;;;5035377;28;20906;-88
2021/11/19 02:15:03;;;;;;;0.30;0.30;;;2.80;99.90;;;;;;5034561;28;20471;-84
2021/11/19 02:17:30;;;;;;;0.60;0.50;;;2.80;99.90;;;;;;5034499;28;20415;-84
2021/11/19 02:20:01;;;;;;;0.50;0.50;;;2.80;99.90;;;;;;5033951;28;20858;-84
2021/11/19 02:22:32;;;;;;;0.40;0.40;;;2.80;99.90;;;;;;5035043;28;20785;-84
2021/11/19 02:25:10;;;;;;;0.30;0.30;;;2.70;99.90;;;;;;5034173;28;20830;-86
2021/11/19 02:27:40;;;;;;;0.30;0.30;;;2.70;99.90;;;;;;5034472;28;20446;-86
2021/11/19 02:30:11;;;;;;;0.30;0.30;;;2.60;99.90;;;;;;5034594;28;20427;-86
2021/11/19 02:32:41;;;;;;;0.30;0.30;;;2.60;99.90;;;;;;5034553;28;20446;-85
2021/11/19 02:35:11;;;;;;;0.30;0.20;;;2.60;99.90;;;;;;5034081;28;20490;-84
2021/11/19 02:37:41;;;;;;;0.77;0.60;;;2.60;99.90;;;;;;5034505;28;20450;-87
2021/11/19 02:40:13;;;;;;;0.50;0.50;;;2.60;99.90;;;;;;5034933;28;20471;-87
2021/11/19 02:42:44;;;;;;;0.33;0.33;;;2.60;99.90;;;;;;5034452;28;20442;-86
2021/11/19 02:45:13;;;;;;;0.30;0.30;;;2.60;99.90;;;;;;5034136;28;20466;-86
2021/11/19 02:47:40;;;;;;;0.77;0.77;;;2.60;99.90;;;;;;5034622;28;20799;-88
2021/11/19 02:50:08;;;;;;;0.60;0.60;;;2.60;99.90;;;;;;5034170;28;20447;-86
2021/11/19 02:52:37;;;;;;;0.30;0.30;;;2.60;99.90;;;;;;5034248;28;20466;-86
2021/11/19 02:55:08;;;;;;;0.30;0.30;;;2.60;99.90;;;;;;5034522;28;20463;-87
2021/11/19 02:57:36;;;;;;;0.30;0.30;;;2.50;99.90;;;;;;5034036;28;20907;-87
2021/11/19 03:00:08;;;;;;;0.30;0.30;;;2.50;99.90;;;;;;5034090;28;20477;-87
2021/11/19 03:02:35;;;;;;;0.30;0.30;;;2.50;99.90;;;;;;5034179;28;20431;-87
2021/11/19 03:05:04;;;;;;;0.30;0.30;;;2.50;99.90;;;;;;5034262;28;20475;-87
2021/11/19 03:07:31;;;;;;;0.30;0.30;;;2.50;99.90;;;;;;5034244;28;20916;-87
2021/11/19 03:10:02;;;;;;;0.30;0.30;;;2.40;99.90;;;;;;5034152;28;20435;-87
2021/11/19 03:12:32;;;;;;;0.40;0.40;;;2.50;99.90;;;;;;5034289;28;20546;-87
2021/11/19 03:15:03;;;;;;;0.30;0.20;;;2.50;99.90;;;;;;5033762;28;20456;-87
2021/11/19 03:17:30;;;;;;;0.60;0.57;;;2.40;99.90;;;;;;5033883;28;20420;-87
2021/11/19 03:19:57;;;;;;;0.40;0.40;;;2.40;99.90;;;;;;5033632;28;20482;-87
2021/11/19 03:22:27;;;;;;;0.30;0.30;;;2.40;99.90;;;;;;5034006;28;20548;-87
2021/11/19 03:24:54;;;;;;;0.30;0.30;;;2.40;99.90;;;;;;5033723;28;20474;-87
2021/11/19 03:27:23;;;;;;;0.30;0.30;;;2.30;99.90;;;;;;5033811;28;20442;-87
2021/11/19 03:29:51;;;;;;;0.30;0.30;;;2.30;99.90;;;;;;5033646;28;20451;-87
2021/11/19 03:32:23;;;;;;;0.30;0.30;;;2.30;99.90;;;;;;5033830;28;20451;-87
2021/11/19 03:34:50;;;;;;;0.30;0.30;;;2.30;99.90;;;;;;5033623;28;20473;-87
2021/11/19 03:37:18;;;;;;;0.30;0.30;;;2.30;99.90;;;;;;5034075;28;20454;-87
2021/11/19 03:39:45;;;;;;;0.33;0.33;;;2.30;99.90;;;;;;5033598;28;20452;-87
2021/11/19 03:42:13;;;;;;;0.87;0.43;;;2.30;99.90;;;;;;5033750;28;20450;-87
2021/11/19 03:44:44;;;;;;;0.47;0.47;;;2.30;99.90;;;;;;5033386;28;20474;-87
2021/11/19 03:47:18;;;;;;;0.30;0.30;;;2.30;99.90;;;;;;5033706;28;20504;-87
2021/11/19 03:49:47;;;;;;;0.50;0.50;;;2.30;99.90;;;;;;5033466;28;20442;-84
2021/11/19 03:52:17;;;;;;;0.30;0.30;;;2.20;99.90;;;;;;5033135;28;20446;-84
2021/11/19 03:54:46;;;;;;;0.70;0.40;;;2.20;99.90;;;;;;5034568;28;20467;-84
2021/11/19 03:57:15;;;;;;;0.30;0.27;;;2.20;99.90;;;;;;5039831;28;20534;-85
2021/11/19 03:59:42;;;;;;;0.40;0.40;;;2.20;99.90;;;;;;5033085;28;20487;-85
2021/11/19 04:02:09;;;;;;;0.40;0.40;;;2.20;99.90;;;;;;5033426;28;20458;-87
2021/11/19 04:04:38;;;;;;;0.50;0.50;;;2.20;99.90;;;;;;5033522;28;20470;-87
2021/11/19 04:07:10;;;;;;;0.30;0.30;;;2.10;99.90;;;;;;5033442;28;20446;-87
2021/11/19 04:09:37;;;;;;;0.60;0.60;;;2.20;99.90;;;;;;5033453;28;20800;-88
2021/11/19 04:12:06;;;;;;;0.40;0.40;;;2.10;99.90;;;;;;5033745;28;20455;-87
2021/11/19 04:14:33;;;;;;;1.57;1.53;;;2.10;99.90;;;;;;5033316;28;20458;-89
2021/11/19 04:17:01;;;;;;;0.60;0.60;;;2.10;99.90;;;;;;5033106;28;20851;-84
2021/11/19 04:19:30;;;;;;;0.30;0.30;;;2.10;99.90;;;;;;5035688;28;20496;-84
2021/11/19 04:21:59;;;;;;;0.30;0.30;;;2.10;99.90;;;;;;5036311;28;20450;-84
2021/11/19 04:24:32;;;;;;;0.80;0.50;;;2.00;99.90;;;;;;5036709;28;20511;-88
2021/11/19 04:26:59;;;;;;;0.30;0.30;;;2.10;99.90;;;;;;5038036;28;20443;-88
2021/11/19 04:29:26;;;;;;;0.30;0.30;;;2.00;99.90;;;;;;5037162;28;20454;-87
2021/11/19 04:31:52;;;;;;;0.30;0.30;;;2.00;99.90;;;;;;5037164;28;20458;-88
2021/11/19 04:34:19;;;;;;;0.30;0.30;;;2.00;99.90;;;;;;5036624;28;20478;-84
2021/11/19 04:36:46;;;;;;;0.30;0.30;;;2.00;99.90;;;;;;5036352;28;20454;-84
2021/11/19 04:39:13;;;;;;;0.30;0.30;;;2.00;99.90;;;;;;5045063;28;20452;-88
2021/11/19 04:41:43;;;;;;;0.40;0.40;;;2.00;99.90;;;;;;5036802;28;20466;-87
2021/11/19 04:44:10;;;;;;;0.30;0.20;;;2.00;99.90;;;;;;5036479;28;20467;-87
2021/11/19 04:46:38;;;;;;;0.53;0.53;;;2.00;99.90;;;;;;5036590;28;20450;-87
2021/11/19 04:49:05;;;;;;;0.40;0.40;;;2.00;99.90;;;;;;5036602;28;20824;-87
2021/11/19 04:51:35;;;;;;;0.30;0.30;;;1.90;99.90;;;;;;5036558;28;20454;-87
2021/11/19 04:54:03;;;;;;;0.30;0.30;;;1.90;99.90;;;;;;5035953;28;20848;-85
2021/11/19 04:56:31;;;;;;;0.40;0.40;;;1.90;99.90;;;;;;5035987;28;20458;-85
2021/11/19 04:58:59;;;;;;;0.70;0.70;;;1.80;99.90;;;;;;5036302;28;20627;-88
2021/11/19 05:01:30;;;;;;;0.30;0.30;;;1.80;99.90;;;;;;5036346;28;21043;-88
2021/11/19 05:03:57;;;;;;;0.40;0.40;;;1.80;99.90;;;;;;5037350;28;20482;-88
2021/11/19 05:06:24;;;;;;;0.70;0.70;;;1.80;99.90;;;;;;5036405;28;20821;-84
2021/11/19 05:08:51;;;;;;;0.30;0.30;;;1.70;99.90;;;;;;5036243;28;20453;-85
2021/11/19 05:11:21;;;;;;;0.80;0.80;;;1.70;99.90;;;;;;5036167;28;20457;-86
2021/11/19 05:13:48;;;;;;;0.30;0.30;;;1.80;99.90;;;;;;5036369;28;20451;-85
2021/11/19 05:16:17;;;;;;;1.07;0.77;;;1.80;99.90;;;;;;5035714;28;20454;-85
2021/11/19 05:18:45;;;;;;;0.30;0.30;;;1.80;99.90;;;;;;5036162;28;20451;-88
2021/11/19 05:21:14;;;;;;;0.30;0.30;;;1.70;99.90;;;;;;5036317;28;20487;-88
2021/11/19 05:23:41;;;;;;;2.10;2.00;;;1.70;99.90;;;;;;5035610;28;20451;-84
2021/11/19 05:26:09;;;;;;;0.40;0.40;;;1.70;99.90;;;;;;5035671;28;20451;-86
2021/11/19 05:28:36;;;;;;;1.33;0.90;;;1.70;99.90;;;;;;5035603;28;20443;-86
2021/11/19 05:31:05;;;;;;;0.50;0.50;;;1.70;99.90;;;;;;5035390;28;20458;-85
2021/11/19 05:33:34;;;;;;;0.70;0.70;;;1.70;99.90;;;;;;5035259;28;20450;-85
2021/11/19 05:36:02;;;;;;;0.40;0.40;;;1.80;99.90;;;;;;5035246;28;20435;-86
2021/11/19 05:38:29;;;;;;;0.40;0.40;;;1.80;99.90;;;;;;5035426;28;20453;-86
2021/11/19 05:40:57;;;;;;;0.30;0.30;;;1.80;99.90;;;;;;5035467;28;20526;-86
2021/11/19 05:43:25;;;;;;;0.57;0.40;;;1.80;99.90;;;;;;5035294;28;20457;-86
2021/11/19 05:45:51;;;;;;;0.30;0.30;;;1.80;99.90;;;;;;5035435;28;20453;-86
2021/11/19 05:48:18;;;;;;;0.30;0.30;;;1.90;99.90;;;;;;5035299;28;20478;-86
2021/11/19 05:50:48;;;;;;;0.30;0.30;;;2.00;99.90;;;;;;5034824;28;20957;-85
2021/11/19 05:53:15;;;;;;;0.30;0.30;;;2.00;99.90;;;;;;5034915;28;20439;-84
2021/11/19 05:55:45;;;;;;;0.30;0.20;;;2.10;99.90;;;;;;5035024;28;20457;-84
2021/11/19 05:58:12;;;;;;;0.50;0.50;;;2.10;99.90;;;;;;5034734;28;20471;-85
2021/11/19 06:00:41;;;;;;;0.40;0.40;;;2.10;99.90;;;;;;5034516;28;20490;-85
2021/11/19 06:03:09;;;;;;;0.30;0.30;;;2.10;99.90;;;;;;5034516;28;20949;-85
2021/11/19 06:05:36;;;;;;;0.80;0.63;;;2.20;99.90;;;;;;5034624;28;20475;-84
2021/11/19 06:08:05;;;;;;;0.30;0.30;;;2.20;99.90;;;;;;5034569;28;20960;-85
2021/11/19 06:10:32;;;;;;;0.30;0.30;;;2.20;99.90;;;;;;5034711;28;20539;-85
2021/11/19 06:13:03;;;;;;;0.30;0.30;;;2.20;99.90;;;;;;5034641;28;20439;-85
2021/11/19 06:15:33;;;;;;;0.30;0.30;;;2.20;99.90;;;;;;5034643;28;20998;-89
2021/11/19 06:18:03;;;;;;;0.30;0.30;;;2.10;99.90;;;;;;5035123;28;20449;-84
2021/11/19 06:20:36;;;;;;;0.50;0.50;;;2.10;99.90;;;;;;5034602;28;20478;-84
2021/11/19 06:23:07;;;;;;;0.30;0.30;;;2.10;99.90;;;;;;5034284;28;20439;-89
2021/11/19 06:25:37;;;;;;;0.30;0.30;;;2.10;99.90;;;;;;5034997;28;20451;-89
2021/11/19 06:28:06;;;;;;;0.80;0.80;;;2.00;99.90;;;;;;5035191;28;20534;-89
2021/11/19 06:30:33;;;;;;;0.30;0.30;;;1.90;99.90;;;;;;5035051;28;20450;-89
2021/11/19 06:33:01;;;;;;;0.30;0.30;;;1.90;99.90;;;;;;5034463;28;20435;-84
2021/11/19 06:35:28;;;;;;;0.40;0.30;;;1.80;99.90;;;;;;5033801;28;20455;-84
2021/11/19 06:37:55;;;;;;;0.70;0.40;;;1.60;99.90;;;;;;5034884;28;20458;-89
2021/11/19 06:40:26;;;;;;;0.30;0.30;;;1.50;99.90;;;;;;5034845;28;20479;-89
2021/11/19 06:42:57;;;;;;;0.30;0.30;;;1.40;99.90;;;;;;5035578;28;20760;-87
2021/11/19 06:45:25;;;;;;;0.30;0.20;;;1.40;99.90;;;;;;5034284;28;20510;-86
2021/11/19 06:47:52;;;;;;;0.30;0.30;;;1.40;99.90;;;;;;5034420;28;20458;-89
2021/11/19 06:50:22;;;;;;;0.30;0.30;;;1.50;99.90;;;;;;5034832;28;20450;-89
2021/11/19 06:52:49;;;;;;;0.70;0.70;;;1.50;99.90;;;;;;5034878;28;20816;-89
2021/11/19 06:55:16;;;;;;;0.47;0.47;;;1.50;99.90;;;;;;5034660;28;20478;-89
2021/11/19 06:57:45;;;;;;;0.50;0.50;;;1.50;99.90;;;;;;5034491;28;20489;-89
2021/11/19 07:00:15;;;;;;;0.30;0.30;;;1.50;99.90;;;;;;5035120;28;20451;-87
2021/11/19 07:02:41;;;;;;;0.30;0.30;;;1.60;99.90;;;;;;5033805;28;20449;-86
2021/11/19 07:05:08;;;;;;;0.97;0.80;;;1.70;99.90;;;;;;5033791;28;20473;-85
2021/11/19 07:07:35;;;;;;;0.30;0.30;;;1.70;99.90;;;;;;5033704;28;20466;-86
2021/11/19 07:10:03;;;;;;;0.30;0.30;;;1.70;99.90;;;;;;5033903;28;20451;-86
2021/11/19 07:12:30;;;;;;;0.40;0.30;;;1.70;99.90;;;;;;5033562;28;20949;-86
2021/11/19 07:14:58;;;;;;;0.30;0.30;;;1.70;99.90;;;;;;5033768;28;20989;-86
2021/11/19 07:17:25;;;;;;;0.30;0.30;;;1.80;99.90;;;;;;5033882;28;20462;-86
2021/11/19 07:19:52;;;;;;;0.40;0.40;;;1.90;99.90;;;;;;5033618;28;20442;-86
2021/11/19 07:22:19;;;;;;;0.30;0.30;;;1.90;99.90;;;;;;5033697;28;20477;-86
2021/11/19 07:24:45;;;;;;;0.30;0.20;;;1.90;99.90;;;;;;5033906;28;20477;-86
2021/11/19 07:27:14;;;;;;;0.30;0.30;;;1.90;99.90;;;;;;5033660;28;20438;-86
2021/11/19 07:29:43;;;;;;;0.30;0.30;;;1.90;99.90;;;;;;5033352;28;20419;-86
2021/11/19 07:32:11;;;;;;;2.00;1.03;;;1.90;99.90;;;;;;5033593;28;20479;-86
2021/11/19 07:34:38;;;;;;;0.30;0.30;;;1.90;99.90;;;;;;5033927;28;20473;-86
2021/11/19 07:37:05;;;;;;;0.83;0.80;;;1.80;99.90;;;;;;5033896;28;20951;-87
2021/11/19 07:39:32;;;;;;;0.67;0.67;;;1.90;99.90;;;;;;5033742;28;20446;-87
2021/11/19 07:41:59;;;;;;;0.40;0.40;;;1.90;99.90;;;;;;5033536;28;20478;-87
2021/11/19 07:44:26;;;;;;;0.30;0.20;;;2.00;99.90;;;;;;5033341;28;20461;-87
2021/11/19 07:46:52;;;;;;;0.30;0.20;;;2.10;99.90;;;;;;5033416;28;20466;-86
2021/11/19 07:49:21;;;;;;;0.50;0.50;;;2.10;99.90;;;;;;5033481;28;20435;-87
2021/11/19 07:51:49;;;;;;;1.00;0.60;;;2.20;99.90;;;;;;5034143;28;20473;-87
2021/11/19 07:54:17;;;;;;;0.63;0.63;;;2.30;99.90;;;;;;5036889;28;20458;-84
2021/11/19 07:56:44;;;;;;;0.30;0.30;;;2.40;99.90;;;;;;5037199;28;20445;-85
2021/11/19 07:59:15;;;;;;;0.30;0.30;;;2.50;99.90;;;;;;5036952;28;20486;-85
2021/11/19 08:01:43;;;;;;;0.30;0.20;;;2.60;99.90;;;;;;5036771;28;20945;-85
2021/11/19 08:04:10;;;;;;;0.30;0.30;;;2.70;99.90;;;;;;5037166;28;20848;-88
2021/11/19 08:06:39;;;;;;;0.30;0.30;;;2.80;99.90;;;;;;5037297;28;20435;-88
2021/11/19 08:09:07;;;;;;;0.30;0.30;;;2.80;99.90;;;;;;5037583;28;20852;-88
2021/11/19 08:11:35;;;;;;;0.87;0.87;;;2.90;99.90;;;;;;5037334;28;20457;-87
2021/11/19 08:14:02;;;;;;;0.43;0.43;;;3.00;99.90;;;;;;5037251;28;20462;-86
2021/11/19 08:16:32;;;;;;;0.30;0.20;;;3.00;99.90;;;;;;5037164;28;20534;-87
2021/11/19 08:19:02;;;;;;;0.40;0.40;;;3.10;99.90;;;;;;5037179;28;20800;-87
2021/11/19 08:21:29;;;;;;;0.33;0.33;;;3.10;99.90;;;;;;5036871;28;20486;-87
2021/11/19 08:24:01;;;;;;;0.30;0.20;;;3.20;99.90;;;;;;5036848;28;20839;-87
2021/11/19 08:26:31;;;;;;;0.63;0.63;;;3.30;99.90;;;;;;5037036;28;20434;-87
2021/11/19 08:28:58;;;;;;;0.30;0.30;;;3.40;99.90;;;;;;5037323;28;20438;-87
2021/11/19 08:31:27;;;;;;;0.30;0.30;;;3.60;99.90;;;;;;5037644;28;20442;-87
2021/11/19 08:33:54;;;;;;;1.03;1.03;;;4.00;99.90;;;;;;5036840;28;20994;-87
2021/11/19 08:36:23;;;;;;;0.30;0.20;;;4.50;99.90;;;;;;5036632;28;20443;-84
2021/11/19 08:38:51;;;;;;;0.50;0.40;;;4.80;99.90;;;;;;5036152;28;20447;-83
2021/11/19 08:41:20;;;;;;;0.40;0.30;;;5.10;99.90;;;;;;5036506;28;20836;-88
2021/11/19 08:43:49;;;;;;;0.30;0.30;;;5.50;99.90;;;;;;5036279;28;20860;-84
2021/11/19 08:46:19;;;;;;;0.40;0.40;;;5.80;99.90;;;;;;5036291;28;20442;-85
2021/11/19 08:48:49;;;;;;;0.43;0.43;;;5.90;99.90;;;;;;5036390;28;20449;-86
2021/11/19 08:51:19;;;;;;;0.30;0.30;;;6.10;99.90;;;;;;5036018;28;20427;-86
2021/11/19 08:53:46;;;;;;;0.40;0.30;;;6.10;99.90;;;;;;5036573;28;20467;-86
2021/11/19 08:56:14;;;;;;;0.40;0.37;;;6.20;99.90;;;;;;5035861;28;20435;-86
2021/11/19 08:58:43;;;;;;;0.50;0.40;;;6.30;99.90;;;;;;5035827;28;20466;-84
2021/11/19 09:01:11;;;;;;;0.80;0.43;;;6.30;99.90;;;;;;5035693;28;20486;-84
2021/11/19 09:03:38;;;;;;;0.40;0.40;;;6.20;99.90;;;;;;5035344;28;20447;-87
2021/11/19 09:06:08;;;;;;;2.30;0.60;;;6.10;99.90;;;;;;5035970;28;20431;-87
2021/11/19 09:08:36;;;;;;;0.67;0.67;;;6.10;99.90;;;;;;5036456;28;20449;-86
2021/11/19 09:11:05;;;;;;;0.30;0.30;;;6.10;99.90;;;;;;5035947;28;20423;-84
2021/11/19 09:13:33;;;;;;;0.40;0.30;;;6.00;99.90;;;;;;5035706;28;20453;-84
2021/11/19 09:16:04;;;;;;;0.70;0.70;;;6.00;99.90;;;;;;5036498;28;20789;-84
2021/11/19 09:18:37;;;;;;;1.40;1.33;;;5.80;99.90;;;;;;5035620;28;20473;-84
2021/11/19 09:21:14;;;;;;;0.47;0.47;;;5.80;99.90;;;;;;5035525;28;20466;-86
2021/11/19 09:23:45;;;;;;;0.30;0.30;;;5.70;99.90;;;;;;5035824;28;20458;-87
2021/11/19 09:26:14;;;;;;;0.73;0.70;;;5.70;99.90;;;;;;5035856;28;20443;-87
2021/11/19 09:28:45;;;;;;;1.10;0.63;;;6.10;99.90;;;;;;5035725;28;20456;-86
2021/11/19 09:31:15;;;;;;;1.57;0.40;;;6.20;99.90;;;;;;5035658;28;20894;-86
2021/11/19 09:33:44;;;;;;;0.50;0.50;;;6.40;99.90;;;;;;5036007;28;20856;-86
2021/11/19 09:36:11;;;;;;;0.80;0.37;;;6.50;99.90;;;;;;5035464;28;20921;-86
2021/11/19 09:38:38;;;;;;;0.30;0.30;;;6.70;99.90;;;;;;5035441;28;20802;-86
2021/11/19 09:41:45;;;;;;;1.10;0.47;;;6.90;99.90;;;;;;5035494;28;20467;-87
2021/11/19 09:44:42;;;;;;;0.30;0.30;;;6.90;99.90;;;;;;5035346;28;20471;-87
2021/11/19 09:47:57;;;;;;;0.40;0.40;;;7.00;99.90;;;;;;5035720;28;20431;-88
2021/11/19 09:51:19;;;;;;;2.73;0.53;;;7.00;99.90;;;;;;4955506;29;20416;-88
2021/11/19 09:54:22;;;;;;;0.40;0.30;;;7.10;99.90;;;;;;5035582;28;20466;-88
2021/11/19 09:57:37;;;;;;;0.30;0.20;;;7.10;99.90;;;;;;5035199;28;20438;-87
2021/11/19 10:00:18;;;;;;;0.30;0.30;;;7.10;99.90;;;;;;5035240;28;20442;-87
2021/11/19 10:03:10;;;;;;;0.40;0.40;;;7.40;99.90;;;;;;5035032;28;20835;-87
2021/11/19 10:05:47;;;;;;;0.30;0.30;;;7.40;99.90;;;;;;5034871;28;20997;-85
2021/11/19 10:08:40;;;;;;;1.80;0.50;;;7.50;99.90;;;;;;5034492;28;20438;-87
2021/11/19 10:11:15;;;;;;;0.40;0.33;;;7.40;99.90;;;;;;5035140;28;20451;-87
2021/11/19 10:14:03;;;;;;;0.40;0.40;;;7.20;99.90;;;;;;5034787;28;20462;-87
2021/11/19 10:16:49;;;;;;;0.40;0.40;;;7.20;99.90;;;;;;5033775;28;20468;-87
2021/11/19 10:19:23;;;;;;;1.60;1.50;;;7.30;99.90;;;;;;5035300;28;20509;-87
2021/11/19 10:21:58;;;;;;;0.70;0.70;;;7.20;99.90;;;;;;5034602;28;20459;-87
2021/11/19 10:24:45;;;;;;;0.30;0.30;;;7.10;99.90;;;;;;5034678;28;20792;-87
2021/11/19 10:27:14;;;;;;;0.50;0.40;;;7.10;99.90;;;;;;5034356;28;20417;-87
2021/11/19 10:29:44;;;;;;;1.53;1.43;;;7.10;99.90;;;;;;5034735;28;20438;-87
2021/11/19 10:32:14;;;;;;;0.90;0.60;;;7.20;99.90;;;;;;5034164;28;20910;-86
2021/11/19 10:34:48;;;;;;;0.53;0.30;;;7.30;99.90;;;;;;5034011;28;20462;-86
2021/11/19 10:37:53;;;;;;;0.60;0.43;;;7.30;99.90;;;;;;5034339;28;20434;-86
2021/11/19 10:41:18;;;;;;;0.40;0.30;;;7.30;99.90;;;;;;4993919;28;20466;-86
2021/11/19 10:44:12;;;;;;;2.80;0.60;;;7.30;99.90;;;;;;4966942;28;20974;-86
2021/11/19 10:47:01;;;;;;;2.63;0.40;;;7.20;99.90;;;;;;5033946;28;20937;-86
2021/11/19 10:50:01;;;;;;;1.17;1.17;;;7.10;99.90;;;;;;5033809;28;20440;-86
2021/11/19 10:53:06;;;;;;;0.47;0.47;;;7.30;99.90;;;;;;5034721;28;20802;-86
2021/11/19 10:56:10;;;;;;;0.40;0.40;;;7.30;99.90;;;;;;5031193;28;20919;-85
2021/11/19 10:58:50;;;;;;;0.43;0.43;;;7.30;99.90;;;;;;5033438;28;20481;-85
2021/11/19 11:01:27;;;;;;;0.30;0.30;;;7.50;99.90;;;;;;5033792;28;20439;-85
2021/11/19 11:04:05;;;;;;;0.40;0.40;;;7.40;99.90;;;;;;5033652;28;20469;-84
2021/11/19 11:06:38;;;;;;;0.60;0.60;;;7.50;99.90;;;;;;5033407;28;20422;-84
2021/11/19 11:09:30;;;;;;;0.97;0.87;;;7.50;99.90;;;;;;5033659;28;20450;-85
2021/11/19 11:12:23;;;;;;;0.47;0.47;;;7.50;99.90;;;;;;5044476;28;20450;-85
2021/11/19 11:15:13;;;;;;;0.53;0.53;;;7.50;99.90;;;;;;5022749;28;20467;-86
2021/11/19 11:18:01;;;;;;;0.30;0.30;;;7.50;99.90;;;;;;5033713;28;20412;-86
2021/11/19 11:20:32;;;;;;;2.23;0.53;;;7.50;99.90;;;;;;5033669;28;20435;-85
2021/11/19 11:23:03;;;;;;;0.73;0.60;;;7.40;99.90;;;;;;5033648;28;20471;-85
2021/11/19 11:25:33;;;;;;;0.50;0.50;;;7.40;99.90;;;;;;5033613;28;20874;-86
2021/11/19 11:28:20;;;;;;;0.80;0.40;;;7.40;99.90;;;;;;5033089;28;20907;-86
2021/11/19 11:30:52;;;;;;;0.67;0.67;;;7.50;99.90;;;;;;5033508;28;20850;-86
2021/11/19 11:33:23;;;;;;;0.40;0.30;;;7.40;99.90;;;;;;5033526;28;20467;-85
2021/11/19 11:35:52;;;;;;;0.77;0.40;;;7.50;99.90;;;;;;5033407;28;20411;-84
2021/11/19 11:38:50;;;;;;;0.87;0.53;;;7.50;99.90;;;;;;5033935;28;20466;-81
2021/11/19 11:41:30;;;;;;;0.47;0.47;;;7.40;99.90;;;;;;5033227;28;20439;-80
2021/11/19 11:44:16;;;;;;;0.70;0.70;;;7.50;99.90;;;;;;5033131;28;20466;-83
2021/11/19 11:46:57;;;;;;;0.40;0.40;;;7.50;99.90;;;;;;5033631;28;20509;-84
2021/11/19 11:49:33;;;;;;;0.40;0.30;;;7.50;99.90;;;;;;5033775;28;20454;-85
2021/11/19 11:52:10;;;;;;;2.33;1.20;;;7.50;99.90;;;;;;5033277;28;20418;-88
2021/11/19 11:54:53;;;;;;;0.70;0.70;;;7.50;99.90;;;;;;5033190;28;20473;-87
2021/11/19 11:57:36;;;;;;;1.83;0.90;;;7.40;99.90;;;;;;5033357;28;20414;-87
2021/11/19 12:00:09;;;;;;;0.40;0.40;;;7.40;99.90;;;;;;5033515;28;20918;-86
2021/11/19 12:02:43;;;;;;;0.40;0.40;;;7.50;99.90;;;;;;5033269;28;20478;-86
2021/11/19 12:05:33;;;;;;;2.83;0.67;;;7.60;99.90;;;;;;5033141;28;20574;-86
2021/11/19 12:08:31;;;;;;;0.50;0.40;;;7.60;99.90;;;;;;5033019;28;20496;-86
2021/11/19 12:11:26;;;;;;;0.40;0.40;;;7.60;99.90;;;;;;5033020;28;20435;-84
2021/11/19 12:13:57;;;;;;;0.40;0.40;;;7.40;99.90;;;;;;5033079;28;20502;-87
2021/11/19 12:16:33;;;;;;;1.13;0.50;;;7.40;99.90;;;;;;5033183;28;20439;-86
2021/11/19 12:19:04;;;;;;;0.70;0.67;;;7.40;99.90;;;;;;5033139;28;20414;-87
2021/11/19 12:21:34;;;;;;;0.60;0.50;;;7.40;99.90;;;;;;5033002;28;20411;-87
2021/11/19 12:24:07;;;;;;;0.70;0.70;;;7.50;99.90;;;;;;5033115;28;20454;-87
2021/11/19 12:26:49;;;;;;;1.20;0.67;;;7.40;99.90;;;;;;5033259;28;20426;-87
2021/11/19 12:29:29;;;;;;;0.50;0.37;;;7.40;99.90;;;;;;5033105;28;20415;-89
2021/11/19 12:32:02;;;;;;;0.80;0.80;;;7.30;99.90;;;;;;5033904;28;20427;-87
2021/11/19 12:34:33;;;;;;;0.50;0.50;;;7.20;99.90;;;;;;5033126;28;20446;-87
2021/11/19 12:37:04;;;;;;;0.73;0.60;;;7.20;99.90;;;;;;5033099;28;20438;-87
2021/11/19 12:39:35;;;;;;;0.40;0.30;;;7.10;99.90;;;;;;5034142;28;20412;-87
2021/11/19 12:42:08;;;;;;;0.87;0.60;;;7.10;99.90;;;;;;5036582;28;20974;-87
2021/11/19 12:44:49;;;;;;;0.77;0.77;;;7.10;99.90;;;;;;5036568;28;20470;-87
2021/11/19 12:47:35;;;;;;;0.50;0.43;;;7.10;99.90;;;;;;5036794;28;20929;-87
2021/11/19 12:50:22;;;;;;;0.43;0.30;;;7.10;99.90;;;;;;5036759;28;20435;-87
2021/11/19 12:53:09;;;;;;;0.63;0.63;;;7.20;99.90;;;;;;5037200;28;20427;-87
2021/11/19 12:55:41;;;;;;;1.50;0.73;;;7.20;99.90;;;;;;5036118;28;20450;-87
2021/11/19 12:58:28;;;;;;;0.77;0.60;;;7.10;99.90;;;;;;5036123;28;20470;-87
2021/11/19 13:01:10;;;;;;;0.63;0.63;;;7.10;99.90;;;;;;5037026;28;20465;-87
2021/11/19 13:03:59;;;;;;;0.30;0.30;;;7.20;99.90;;;;;;5036289;28;20479;-87
2021/11/19 13:06:45;;;;;;;2.30;1.77;;;7.20;99.90;;;;;;5036413;28;20521;-88
2021/11/19 13:09:42;;;;;;;1.43;1.43;;;7.30;99.90;;;;;;5036305;28;20441;-87
2021/11/19 13:12:16;;;;;;;0.30;0.30;;;7.30;99.90;;;;;;5036497;28;20439;-87
2021/11/19 13:14:48;;;;;;;0.60;0.60;;;7.40;99.90;;;;;;5036109;28;20454;-87
2021/11/19 13:17:42;;;;;;;0.30;0.30;;;7.30;99.90;;;;;;5035830;28;20434;-86
2021/11/19 13:20:47;;;;;;;1.47;0.60;;;7.20;99.90;;;;;;5006679;28;20442;-87
2021/11/19 13:23:37;;;;;;;0.50;0.30;;;7.20;99.90;;;;;;5035791;28;20516;-87
2021/11/19 13:26:38;;;;;;;1.23;0.33;;;7.20;99.90;;;;;;5035750;28;20902;-87